Terminal Aerodrome Forecast
Issued by NWS Wichita, KS

Home | Current Version | Previous Version | Text Only | Print | Product List | Glossary On
Versions: 1 2 3 4 5 6 7 8 9 10 11 12 13 14 15 16 17
000
FTUS43 KICT 201408 AAA
TAFICT
TAF AMD
KICT 201408Z 2014/2112 30016G22KT P6SM BKN017
     FM201700 29017G23KT P6SM BKN030
     FM201900 29017G23KT P6SM SCT045
     FM210200 31008KT P6SM FEW250
     FM210500 27004KT P6SM SKC=

USA.gov is the U.S. government's official web portal to all federal, state and local government web resources and services.